sensor_id;sensor_type;location;lat;lon;timestamp;pressure;altitude;pressure_sealevel;temperature;humidity
59168;BME280;44948;55.046;73.266;2022-08-03T00:00:40;100512.22;;;16.04;59.76
59168;BME280;44948;55.046;73.266;2022-08-03T00:02:28;100469.72;;;15.76;60.10
59168;BME280;44948;55.046;73.266;2022-08-03T00:04:29;100394.03;;;15.25;60.11
59168;BME280;44948;55.046;73.266;2022-08-03T00:06:19;100325.53;;;14.84;60.05
59168;BME280;44948;55.046;73.266;2022-08-03T00:08:04;100423.59;;;15.50;59.97
59168;BME280;44948;55.046;73.266;2022-08-03T00:09:53;100489.22;;;15.95;60.08
59168;BME280;44948;55.046;73.266;2022-08-03T00:11:41;100398.66;;;15.43;59.95
59168;BME280;44948;55.046;73.266;2022-08-03T00:13:35;100512.94;;;16.16;60.26
59168;BME280;44948;55.046;73.266;2022-08-03T00:15:23;100521.72;;;16.16;59.79
59168;BME280;44948;55.046;73.266;2022-08-03T00:17:08;100395.47;;;15.39;59.99
59168;BME280;44948;55.046;73.266;2022-08-03T00:18:57;100460.56;;;15.80;60.04
59168;BME280;44948;55.046;73.266;2022-08-03T00:20:39;100471.56;;;15.86;59.93
59168;BME280;44948;55.046;73.266;2022-08-03T00:22:30;100525.06;;;16.18;59.80
59168;BME280;44948;55.046;73.266;2022-08-03T00:24:19;100451.31;;;15.65;59.73
59168;BME280;44948;55.046;73.266;2022-08-03T00:26:06;100491.47;;;15.99;59.80
59168;BME280;44948;55.046;73.266;2022-08-03T00:27:56;100451.75;;;15.70;60.14
59168;BME280;44948;55.046;73.266;2022-08-03T00:29:41;100425.41;;;15.59;59.98
59168;BME280;44948;55.046;73.266;2022-08-03T00:31:26;100408.25;;;15.44;60.38
59168;BME280;44948;55.046;73.266;2022-08-03T00:33:09;100534.19;;;15.95;60.73
59168;BME280;44948;55.046;73.266;2022-08-03T00:34:54;100527.25;;;16.13;60.43
59168;BME280;44948;55.046;73.266;2022-08-03T00:36:43;100503.31;;;16.05;60.33
59168;BME280;44948;55.046;73.266;2022-08-03T00:38:29;100537.03;;;16.32;60.00
59168;BME280;44948;55.046;73.266;2022-08-03T00:40:18;100430.59;;;15.70;59.95
59168;BME280;44948;55.046;73.266;2022-08-03T00:42:04;100530.34;;;16.37;59.86
59168;BME280;44948;55.046;73.266;2022-08-03T00:43:52;100538.56;;;16.44;60.03
59168;BME280;44948;55.046;73.266;2022-08-03T00:45:47;100543.59;;;16.47;59.57
59168;BME280;44948;55.046;73.266;2022-08-03T00:47:45;100515.88;;;16.32;59.56
59168;BME280;44948;55.046;73.266;2022-08-03T00:49:30;100447.19;;;15.92;59.37
59168;BME280;44948;55.046;73.266;2022-08-03T00:51:21;100473.94;;;16.18;59.37
59168;BME280;44948;55.046;73.266;2022-08-03T00:53:15;100549.00;;;16.55;58.93
59168;BME280;44948;55.046;73.266;2022-08-03T00:55:00;100465.72;;;16.01;59.55
59168;BME280;44948;55.046;73.266;2022-08-03T00:56:44;100457.63;;;16.03;59.67
59168;BME280;44948;55.046;73.266;2022-08-03T00:58:30;100467.66;;;16.09;59.25
59168;BME280;44948;55.046;73.266;2022-08-03T01:00:30;100501.91;;;16.30;58.99
59168;BME280;44948;55.046;73.266;2022-08-03T01:02:21;100462.38;;;16.09;59.43
59168;BME280;44948;55.046;73.266;2022-08-03T01:04:17;100419.22;;;15.99;59.12
59168;BME280;44948;55.046;73.266;2022-08-03T01:06:49;100556.97;;;16.65;59.08
59168;BME280;44948;55.046;73.266;2022-08-03T01:17:07;100566.44;;;16.77;58.45
59168;BME280;44948;55.046;73.266;2022-08-03T01:19:30;100559.91;;;16.81;58.89
59168;BME280;44948;55.046;73.266;2022-08-03T01:22:33;100521.69;;;16.55;58.74
59168;BME280;44948;55.046;73.266;2022-08-03T01:27:43;100453.75;;;16.17;59.20
59168;BME280;44948;55.046;73.266;2022-08-03T01:30:18;100467.78;;;16.27;59.68
59168;BME280;44948;55.046;73.266;2022-08-03T01:35:34;100541.38;;;16.81;58.73
59168;BME280;44948;55.046;73.266;2022-08-03T01:40:35;100457.91;;;16.38;58.11
59168;BME280;44948;55.046;73.266;2022-08-03T01:45:57;100463.19;;;16.48;58.24
59168;BME280;44948;55.046;73.266;2022-08-03T01:47:58;100488.53;;;16.70;58.08
59168;BME280;44948;55.046;73.266;2022-08-03T01:50:16;100584.34;;;17.31;57.73
59168;BME280;44948;55.046;73.266;2022-08-03T01:52:55;100580.38;;;16.98;58.59
59168;BME280;44948;55.046;73.266;2022-08-03T01:55:32;100511.41;;;16.71;58.06
59168;BME280;44948;55.046;73.266;2022-08-03T01:57:49;100446.75;;;16.35;57.61
59168;BME280;44948;55.046;73.266;2022-08-03T01:59:59;100499.66;;;16.73;57.22
59168;BME280;44948;55.046;73.266;2022-08-03T02:02:19;100467.34;;;16.51;57.61
59168;BME280;44948;55.046;73.266;2022-08-03T02:04:25;100599.22;;;17.42;57.38
59168;BME280;44948;55.046;73.266;2022-08-03T02:06:33;100520.81;;;16.93;56.98
59168;BME280;44948;55.046;73.266;2022-08-03T02:11:30;100602.47;;;17.36;57.70
59168;BME280;44948;55.046;73.266;2022-08-03T02:14:21;100564.00;;;17.13;57.77
59168;BME280;44948;55.046;73.266;2022-08-03T02:18:59;100608.28;;;17.49;58.06
59168;BME280;44948;55.046;73.266;2022-08-03T02:21:28;100515.50;;;17.02;58.13
59168;BME280;44948;55.046;73.266;2022-08-03T02:23:48;100525.53;;;17.09;57.11
59168;BME280;44948;55.046;73.266;2022-08-03T02:25:58;100616.88;;;17.71;57.41
59168;BME280;44948;55.046;73.266;2022-08-03T02:31:45;100510.91;;;17.04;58.07
59168;BME280;44948;55.046;73.266;2022-08-03T02:34:04;100607.03;;;17.81;57.83
59168;BME280;44948;55.046;73.266;2022-08-03T02:36:35;100496.72;;;17.33;57.12
59168;BME280;44948;55.046;73.266;2022-08-03T02:38:58;100615.31;;;18.05;57.40
59168;BME280;44948;55.046;73.266;2022-08-03T02:41:04;100512.66;;;17.51;56.92
59168;BME280;44948;55.046;73.266;2022-08-03T02:53:30;100522.44;;;17.78;57.14
59168;BME280;44948;55.046;73.266;2022-08-03T02:55:56;100516.00;;;17.80;56.47
59168;BME280;44948;55.046;73.266;2022-08-03T02:59:08;100482.50;;;17.52;56.12
59168;BME280;44948;55.046;73.266;2022-08-03T03:01:56;100635.41;;;18.53;56.39
59168;BME280;44948;55.046;73.266;2022-08-03T03:04:11;100514.28;;;17.89;55.68
59168;BME280;44948;55.046;73.266;2022-08-03T03:07:01;100627.22;;;18.64;55.56
59168;BME280;44948;55.046;73.266;2022-08-03T03:09:46;100634.28;;;18.73;56.34
59168;BME280;44948;55.046;73.266;2022-08-03T03:12:41;100609.94;;;18.60;55.93
59168;BME280;44948;55.046;73.266;2022-08-03T03:15:23;100646.28;;;18.95;56.33
59168;BME280;44948;55.046;73.266;2022-08-03T03:21:04;100637.00;;;18.81;55.05
59168;BME280;44948;55.046;73.266;2022-08-03T03:27:06;100579.34;;;18.56;54.56
59168;BME280;44948;55.046;73.266;2022-08-03T03:29:13;100568.88;;;18.55;54.40
59168;BME280;44948;55.046;73.266;2022-08-03T03:32:02;100535.16;;;18.37;54.42
59168;BME280;44948;55.046;73.266;2022-08-03T03:34:40;100647.56;;;19.09;53.98
59168;BME280;44948;55.046;73.266;2022-08-03T03:36:45;100568.38;;;18.77;53.68
59168;BME280;44948;55.046;73.266;2022-08-03T03:40:00;100648.50;;;19.26;53.66
59168;BME280;44948;55.046;73.266;2022-08-03T03:48:10;100546.91;;;18.88;53.47
59168;BME280;44948;55.046;73.266;2022-08-03T03:50:58;100612.34;;;19.33;52.62
59168;BME280;44948;55.046;73.266;2022-08-03T03:53:35;100657.88;;;19.56;52.36
59168;BME280;44948;55.046;73.266;2022-08-03T03:56:09;100579.34;;;19.18;50.96
59168;BME280;44948;55.046;73.266;2022-08-03T04:03:01;100541.41;;;18.90;50.89
59168;BME280;44948;55.046;73.266;2022-08-03T04:05:34;100614.66;;;19.54;50.94
59168;BME280;44948;55.046;73.266;2022-08-03T04:11:29;100664.16;;;19.81;50.57
59168;BME280;44948;55.046;73.266;2022-08-03T04:14:09;100663.31;;;19.80;49.51
59168;BME280;44948;55.046;73.266;2022-08-03T04:16:41;100657.38;;;19.86;50.37
59168;BME280;44948;55.046;73.266;2022-08-03T04:22:44;100660.38;;;19.83;49.71
59168;BME280;44948;55.046;73.266;2022-08-03T04:25:30;100654.13;;;20.00;50.12
59168;BME280;44948;55.046;73.266;2022-08-03T04:29:00;100636.03;;;19.78;48.28
59168;BME280;44948;55.046;73.266;2022-08-03T04:31:56;100636.94;;;19.87;47.86
59168;BME280;44948;55.046;73.266;2022-08-03T04:35:01;100673.63;;;20.09;47.82
59168;BME280;44948;55.046;73.266;2022-08-03T04:38:18;100567.47;;;19.38;47.61
59168;BME280;44948;55.046;73.266;2022-08-03T04:47:38;100577.50;;;19.78;46.91
59168;BME280;44948;55.046;73.266;2022-08-03T04:53:55;100574.81;;;19.78;47.48
59168;BME280;44948;55.046;73.266;2022-08-03T04:56:33;100683.97;;;20.54;47.06
59168;BME280;44948;55.046;73.266;2022-08-03T05:06:09;100599.94;;;20.18;45.32
59168;BME280;44948;55.046;73.266;2022-08-03T05:15:52;100603.97;;;20.30;45.58
59168;BME280;44948;55.046;73.266;2022-08-03T05:21:45;100562.78;;;20.16;45.89
59168;BME280;44948;55.046;73.266;2022-08-03T05:27:57;100630.84;;;20.61;46.03
59168;BME280;44948;55.046;73.266;2022-08-03T05:30:35;100646.69;;;20.71;46.02
59168;BME280;44948;55.046;73.266;2022-08-03T05:32:30;100668.03;;;21.03;45.75
59168;BME280;44948;55.046;73.266;2022-08-03T05:34:16;100579.69;;;20.49;45.45
59168;BME280;44948;55.046;73.266;2022-08-03T05:36:02;100549.69;;;20.47;45.41
59168;BME280;44948;55.046;73.266;2022-08-03T05:37:51;100583.06;;;20.68;45.05
59168;BME280;44948;55.046;73.266;2022-08-03T05:39:53;100587.03;;;20.63;44.87
59168;BME280;44948;55.046;73.266;2022-08-03T05:41:49;100649.38;;;21.11;44.10
59168;BME280;44948;55.046;73.266;2022-08-03T05:43:43;100629.69;;;20.96;44.65
59168;BME280;44948;55.046;73.266;2022-08-03T05:47:51;100644.88;;;21.12;44.25
59168;BME280;44948;55.046;73.266;2022-08-03T05:49:53;100601.53;;;20.85;44.55
59168;BME280;44948;55.046;73.266;2022-08-03T05:51:45;100613.84;;;20.95;44.45
59168;BME280;44948;55.046;73.266;2022-08-03T05:53:44;100627.03;;;21.04;44.95
59168;BME280;44948;55.046;73.266;2022-08-03T05:55:41;100616.69;;;20.93;43.45
59168;BME280;44948;55.046;73.266;2022-08-03T05:57:34;100608.19;;;20.98;43.93
59168;BME280;44948;55.046;73.266;2022-08-03T06:00:07;100610.06;;;21.05;44.60
59168;BME280;44948;55.046;73.266;2022-08-03T06:02:06;100606.03;;;21.01;43.83
59168;BME280;44948;55.046;73.266;2022-08-03T06:04:02;100622.34;;;21.14;43.52
59168;BME280;44948;55.046;73.266;2022-08-03T06:06:02;100616.03;;;21.07;43.07
59168;BME280;44948;55.046;73.266;2022-08-03T06:08:01;100642.34;;;21.27;43.60
59168;BME280;44948;55.046;73.266;2022-08-03T06:09:47;100673.34;;;21.52;43.22
59168;BME280;44948;55.046;73.266;2022-08-03T06:11:32;100610.19;;;21.04;43.51
59168;BME280;44948;55.046;73.266;2022-08-03T06:13:27;100659.34;;;21.42;43.58
59168;BME280;44948;55.046;73.266;2022-08-03T06:15:20;100625.34;;;21.36;43.13
59168;BME280;44948;55.046;73.266;2022-08-03T06:17:14;100641.50;;;21.42;43.27
59168;BME280;44948;55.046;73.266;2022-08-03T06:18:59;100605.34;;;21.24;43.73
59168;BME280;44948;55.046;73.266;2022-08-03T06:21:11;100584.72;;;21.17;42.91
59168;BME280;44948;55.046;73.266;2022-08-03T06:23:03;100602.34;;;21.27;44.02
59168;BME280;44948;55.046;73.266;2022-08-03T06:25:14;100586.03;;;21.21;43.69
59168;BME280;44948;55.046;73.266;2022-08-03T06:27:02;100640.28;;;21.61;43.35
59168;BME280;44948;55.046;73.266;2022-08-03T06:29:00;100620.28;;;21.49;42.94
59168;BME280;44948;55.046;73.266;2022-08-03T06:30:51;100572.34;;;21.25;43.71
59168;BME280;44948;55.046;73.266;2022-08-03T06:32:39;100620.63;;;21.54;43.43
59168;BME280;44948;55.046;73.266;2022-08-03T06:34:39;100570.31;;;21.27;42.77
59168;BME280;44948;55.046;73.266;2022-08-03T06:36:40;100680.72;;;22.05;43.81
59168;BME280;44948;55.046;73.266;2022-08-03T06:38:26;100609.91;;;21.62;42.62
59168;BME280;44948;55.046;73.266;2022-08-03T06:40:22;100600.91;;;21.63;42.29
59168;BME280;44948;55.046;73.266;2022-08-03T06:42:26;100621.91;;;21.66;41.06
59168;BME280;44948;55.046;73.266;2022-08-03T06:44:18;100623.44;;;21.69;42.51
59168;BME280;44948;55.046;73.266;2022-08-03T06:46:12;100589.63;;;21.53;43.22
59168;BME280;44948;55.046;73.266;2022-08-03T06:48:13;100616.19;;;21.77;43.39
59168;BME280;44948;55.046;73.266;2022-08-03T06:50:04;100648.34;;;22.00;42.37
59168;BME280;44948;55.046;73.266;2022-08-03T06:51:58;100574.56;;;21.60;42.36
59168;BME280;44948;55.046;73.266;2022-08-03T06:54:30;100678.19;;;22.12;42.87
59168;BME280;44948;55.046;73.266;2022-08-03T06:56:40;100600.88;;;21.71;42.44
59168;BME280;44948;55.046;73.266;2022-08-03T06:58:27;100590.88;;;21.73;42.93
59168;BME280;44948;55.046;73.266;2022-08-03T07:00:22;100679.13;;;22.27;42.82
59168;BME280;44948;55.046;73.266;2022-08-03T07:02:19;100544.56;;;21.50;42.66
59168;BME280;44948;55.046;73.266;2022-08-03T07:06:46;100651.94;;;22.24;42.68
59168;BME280;44948;55.046;73.266;2022-08-03T07:08:54;100587.00;;;21.84;42.69
59168;BME280;44948;55.046;73.266;2022-08-03T07:10:44;100593.63;;;21.96;42.89
59168;BME280;44948;55.046;73.266;2022-08-03T07:12:40;100671.66;;;22.46;42.84
59168;BME280;44948;55.046;73.266;2022-08-03T07:14:33;100669.66;;;22.48;43.83
59168;BME280;44948;55.046;73.266;2022-08-03T07:16:39;100576.75;;;22.04;43.15
59168;BME280;44948;55.046;73.266;2022-08-03T07:18:24;100572.41;;;22.03;42.58
59168;BME280;44948;55.046;73.266;2022-08-03T07:20:22;100594.34;;;22.21;42.62
59168;BME280;44948;55.046;73.266;2022-08-03T07:22:08;100621.44;;;22.41;42.28
59168;BME280;44948;55.046;73.266;2022-08-03T07:24:16;100643.56;;;22.50;43.06
59168;BME280;44948;55.046;73.266;2022-08-03T07:26:07;100595.00;;;22.23;41.87
59168;BME280;44948;55.046;73.266;2022-08-03T07:27:56;100566.16;;;22.10;41.62
59168;BME280;44948;55.046;73.266;2022-08-03T07:29:53;100580.97;;;22.21;41.97
59168;BME280;44948;55.046;73.266;2022-08-03T07:34:04;100597.91;;;22.36;42.61
59168;BME280;44948;55.046;73.266;2022-08-03T07:36:27;100616.09;;;22.41;42.32
59168;BME280;44948;55.046;73.266;2022-08-03T07:38:26;100643.69;;;22.64;40.65
59168;BME280;44948;55.046;73.266;2022-08-03T07:40:39;100617.53;;;22.52;42.14
59168;BME280;44948;55.046;73.266;2022-08-03T07:42:30;100591.19;;;22.40;41.36
59168;BME280;44948;55.046;73.266;2022-08-03T07:47:08;100549.56;;;22.23;42.32
59168;BME280;44948;55.046;73.266;2022-08-03T07:49:08;100601.25;;;22.61;40.46
59168;BME280;44948;55.046;73.266;2022-08-03T07:51:07;100572.97;;;22.44;40.54
59168;BME280;44948;55.046;73.266;2022-08-03T07:52:58;100561.06;;;22.47;41.61
59168;BME280;44948;55.046;73.266;2022-08-03T07:55:11;100633.31;;;22.84;41.83
59168;BME280;44948;55.046;73.266;2022-08-03T07:57:20;100591.59;;;22.60;40.71
59168;BME280;44948;55.046;73.266;2022-08-03T07:59:16;100590.09;;;22.58;40.54
59168;BME280;44948;55.046;73.266;2022-08-03T08:01:15;100604.59;;;22.63;40.41
59168;BME280;44948;55.046;73.266;2022-08-03T08:03:36;100656.75;;;22.82;39.68
59168;BME280;44948;55.046;73.266;2022-08-03T08:05:36;100587.81;;;22.47;39.65
59168;BME280;44948;55.046;73.266;2022-08-03T08:07:33;100581.41;;;22.56;40.60
59168;BME280;44948;55.046;73.266;2022-08-03T08:09:36;100596.03;;;22.68;40.65
59168;BME280;44948;55.046;73.266;2022-08-03T08:11:34;100605.06;;;22.67;41.47
59168;BME280;44948;55.046;73.266;2022-08-03T08:13:45;100541.13;;;22.34;40.99
59168;BME280;44948;55.046;73.266;2022-08-03T08:15:34;100613.63;;;22.85;41.02
59168;BME280;44948;55.046;73.266;2022-08-03T08:17:59;100577.03;;;22.63;41.01
59168;BME280;44948;55.046;73.266;2022-08-03T08:20:08;100650.75;;;23.18;41.09
59168;BME280;44948;55.046;73.266;2022-08-03T08:22:19;100648.44;;;23.15;40.10
59168;BME280;44948;55.046;73.266;2022-08-03T08:24:13;100574.63;;;22.68;40.81
59168;BME280;44948;55.046;73.266;2022-08-03T08:26:06;100585.56;;;22.81;40.34
59168;BME280;44948;55.046;73.266;2022-08-03T08:27:53;100656.53;;;23.29;40.33
59168;BME280;44948;55.046;73.266;2022-08-03T08:29:45;100571.66;;;22.86;41.31
59168;BME280;44948;55.046;73.266;2022-08-03T08:31:40;100576.47;;;22.90;40.62
59168;BME280;44948;55.046;73.266;2022-08-03T08:33:40;100567.78;;;22.88;40.76
59168;BME280;44948;55.046;73.266;2022-08-03T08:35:28;100570.94;;;22.92;40.31
59168;BME280;44948;55.046;73.266;2022-08-03T08:37:36;100557.28;;;22.87;40.46
59168;BME280;44948;55.046;73.266;2022-08-03T08:39:24;100559.41;;;22.91;41.07
59168;BME280;44948;55.046;73.266;2022-08-03T08:41:22;100574.06;;;22.95;40.28
59168;BME280;44948;55.046;73.266;2022-08-03T08:43:22;100556.72;;;22.91;40.28
59168;BME280;44948;55.046;73.266;2022-08-03T08:45:56;100626.97;;;23.23;40.71
59168;BME280;44948;55.046;73.266;2022-08-03T08:47:57;100582.38;;;23.00;40.40
59168;BME280;44948;55.046;73.266;2022-08-03T08:50:04;100599.78;;;23.19;40.44
59168;BME280;44948;55.046;73.266;2022-08-03T08:52:01;100623.06;;;23.48;41.07
59168;BME280;44948;55.046;73.266;2022-08-03T08:53:54;100580.78;;;23.29;41.05
59168;BME280;44948;55.046;73.266;2022-08-03T08:56:04;100594.81;;;23.46;40.35
59168;BME280;44948;55.046;73.266;2022-08-03T08:58:08;100640.91;;;23.71;40.72
59168;BME280;44948;55.046;73.266;2022-08-03T09:02:35;100610.59;;;23.41;40.51
59168;BME280;44948;55.046;73.266;2022-08-03T09:04:38;100582.78;;;23.27;40.29
59168;BME280;44948;55.046;73.266;2022-08-03T09:06:42;100561.94;;;23.22;40.63
59168;BME280;44948;55.046;73.266;2022-08-03T09:09:00;100568.38;;;23.28;39.77
59168;BME280;44948;55.046;73.266;2022-08-03T09:10:48;100542.19;;;23.23;40.39
59168;BME280;44948;55.046;73.266;2022-08-03T09:12:43;100555.69;;;23.45;39.82
59168;BME280;44948;55.046;73.266;2022-08-03T09:14:37;100559.81;;;23.47;39.50
59168;BME280;44948;55.046;73.266;2022-08-03T09:16:31;100563.25;;;23.56;39.84
59168;BME280;44948;55.046;73.266;2022-08-03T09:18:29;100584.94;;;23.76;39.84
59168;BME280;44948;55.046;73.266;2022-08-03T09:20:27;100580.84;;;23.80;39.39
59168;BME280;44948;55.046;73.266;2022-08-03T09:22:22;100528.72;;;23.61;40.08
59168;BME280;44948;55.046;73.266;2022-08-03T09:24:30;100541.25;;;23.60;38.61
59168;BME280;44948;55.046;73.266;2022-08-03T09:26:32;100503.72;;;23.39;38.62
59168;BME280;44948;55.046;73.266;2022-08-03T09:28:40;100625.94;;;24.06;38.93
59168;BME280;44948;55.046;73.266;2022-08-03T09:30:39;100616.44;;;24.03;38.38
59168;BME280;44948;55.046;73.266;2022-08-03T09:32:36;100529.81;;;23.52;39.30
59168;BME280;44948;55.046;73.266;2022-08-03T09:34:36;100541.16;;;23.69;39.12
59168;BME280;44948;55.046;73.266;2022-08-03T09:39:24;100580.56;;;23.89;38.03
59168;BME280;44948;55.046;73.266;2022-08-03T09:41:24;100546.34;;;23.70;37.16
59168;BME280;44948;55.046;73.266;2022-08-03T09:43:22;100547.44;;;23.76;38.17
59168;BME280;44948;55.046;73.266;2022-08-03T09:48:18;100556.16;;;23.84;38.27
59168;BME280;44948;55.046;73.266;2022-08-03T09:50:16;100520.75;;;23.68;38.40
59168;BME280;44948;55.046;73.266;2022-08-03T09:52:18;100538.75;;;23.74;38.36
59168;BME280;44948;55.046;73.266;2022-08-03T09:54:09;100633.34;;;24.40;38.27
59168;BME280;44948;55.046;73.266;2022-08-03T09:56:40;100537.09;;;23.73;38.80
59168;BME280;44948;55.046;73.266;2022-08-03T09:59:01;100574.75;;;24.01;38.12
59168;BME280;44948;55.046;73.266;2022-08-03T10:01:07;100596.13;;;24.15;37.99
59168;BME280;44948;55.046;73.266;2022-08-03T10:03:05;100536.41;;;23.85;38.69
59168;BME280;44948;55.046;73.266;2022-08-03T10:05:00;100587.41;;;24.28;38.01
59168;BME280;44948;55.046;73.266;2022-08-03T10:07:26;100491.78;;;23.56;37.34
59168;BME280;44948;55.046;73.266;2022-08-03T10:09:34;100535.22;;;23.88;37.57
59168;BME280;44948;55.046;73.266;2022-08-03T10:11:39;100547.41;;;23.90;37.15
59168;BME280;44948;55.046;73.266;2022-08-03T10:13:35;100491.28;;;23.68;37.91
59168;BME280;44948;55.046;73.266;2022-08-03T10:15:29;100535.72;;;23.98;37.75
59168;BME280;44948;55.046;73.266;2022-08-03T10:17:46;100564.50;;;24.26;38.00
59168;BME280;44948;55.046;73.266;2022-08-03T10:19:44;100539.31;;;24.20;37.32
59168;BME280;44948;55.046;73.266;2022-08-03T10:21:49;100494.91;;;23.96;37.64
59168;BME280;44948;55.046;73.266;2022-08-03T10:23:42;100534.44;;;24.30;37.29
59168;BME280;44948;55.046;73.266;2022-08-03T10:25:34;100574.53;;;24.60;38.03
59168;BME280;44948;55.046;73.266;2022-08-03T10:27:42;100521.25;;;24.29;37.03
59168;BME280;44948;55.046;73.266;2022-08-03T10:29:46;100473.84;;;24.08;36.32
59168;BME280;44948;55.046;73.266;2022-08-03T10:31:38;100522.69;;;24.31;36.35
59168;BME280;44948;55.046;73.266;2022-08-03T10:33:28;100518.75;;;24.27;36.38
59168;BME280;44948;55.046;73.266;2022-08-03T10:35:23;100618.16;;;24.90;36.28
59168;BME280;44948;55.046;73.266;2022-08-03T10:37:16;100459.00;;;23.90;36.70
59168;BME280;44948;55.046;73.266;2022-08-03T10:39:12;100627.09;;;24.97;37.18
59168;BME280;44948;55.046;73.266;2022-08-03T10:41:16;100631.63;;;24.96;36.71
59168;BME280;44948;55.046;73.266;2022-08-03T10:46:18;100473.44;;;24.11;37.77
59168;BME280;44948;55.046;73.266;2022-08-03T10:50:38;100625.66;;;25.01;34.89
59168;BME280;44948;55.046;73.266;2022-08-03T10:53:09;100527.38;;;24.44;35.57
59168;BME280;44948;55.046;73.266;2022-08-03T10:55:12;100527.22;;;24.31;36.25
59168;BME280;44948;55.046;73.266;2022-08-03T10:57:56;100598.09;;;24.43;35.89
59168;BME280;44948;55.046;73.266;2022-08-03T11:00:00;100625.19;;;24.91;36.16
59168;BME280;44948;55.046;73.266;2022-08-03T11:02:12;100533.75;;;24.43;36.82
59168;BME280;44948;55.046;73.266;2022-08-03T11:04:16;100624.53;;;25.10;36.83
59168;BME280;44948;55.046;73.266;2022-08-03T11:06:21;100550.06;;;24.69;37.31
59168;BME280;44948;55.046;73.266;2022-08-03T11:08:43;100571.66;;;24.83;37.15
59168;BME280;44948;55.046;73.266;2022-08-03T11:11:43;100632.28;;;25.26;37.23
59168;BME280;44948;55.046;73.266;2022-08-03T11:13:24;100549.75;;;24.79;36.70
59168;BME280;44948;55.046;73.266;2022-08-03T11:15:32;100566.56;;;24.88;36.14
59168;BME280;44948;55.046;73.266;2022-08-03T11:17:18;100549.16;;;24.84;35.76
59168;BME280;44948;55.046;73.266;2022-08-03T11:19:29;100587.88;;;24.96;35.60
59168;BME280;44948;55.046;73.266;2022-08-03T11:24:08;100533.34;;;24.46;36.42
59168;BME280;44948;55.046;73.266;2022-08-03T11:27:16;100626.97;;;24.84;36.22
59168;BME280;44948;55.046;73.266;2022-08-03T11:29:32;100560.59;;;24.49;36.22
59168;BME280;44948;55.046;73.266;2022-08-03T11:33:39;100562.06;;;24.52;36.71
59168;BME280;44948;55.046;73.266;2022-08-03T11:37:36;100543.13;;;24.32;36.98
59168;BME280;44948;55.046;73.266;2022-08-03T11:39:47;100528.41;;;24.22;36.98
59168;BME280;44948;55.046;73.266;2022-08-03T11:42:00;100544.34;;;24.30;36.92
59168;BME280;44948;55.046;73.266;2022-08-03T11:47:41;100573.19;;;24.28;38.24
59168;BME280;44948;55.046;73.266;2022-08-03T11:49:50;100594.19;;;24.45;38.00
59168;BME280;44948;55.046;73.266;2022-08-03T11:52:09;100534.84;;;24.06;37.95
59168;BME280;44948;55.046;73.266;2022-08-03T11:54:06;100623.41;;;24.76;37.48
59168;BME280;44948;55.046;73.266;2022-08-03T11:56:08;100541.53;;;24.38;38.05
59168;BME280;44948;55.046;73.266;2022-08-03T11:58:00;100537.38;;;24.35;38.11
59168;BME280;44948;55.046;73.266;2022-08-03T12:00:39;100557.06;;;24.42;37.79
59168;BME280;44948;55.046;73.266;2022-08-03T12:02:55;100530.69;;;24.25;38.00
59168;BME280;44948;55.046;73.266;2022-08-03T12:05:24;100609.22;;;24.83;38.40
59168;BME280;44948;55.046;73.266;2022-08-03T12:10:29;100531.31;;;24.48;38.13
59168;BME280;44948;55.046;73.266;2022-08-03T12:11:57;100526.06;;;24.61;38.72
59168;BME280;44948;55.046;73.266;2022-08-03T12:13:53;100542.53;;;24.79;38.31
59168;BME280;44948;55.046;73.266;2022-08-03T12:15:59;100496.66;;;24.46;37.58
59168;BME280;44948;55.046;73.266;2022-08-03T12:17:47;100504.56;;;24.55;37.63
59168;BME280;44948;55.046;73.266;2022-08-03T12:19:42;100507.44;;;24.53;38.02
59168;BME280;44948;55.046;73.266;2022-08-03T12:21:31;100519.03;;;24.60;37.81
59168;BME280;44948;55.046;73.266;2022-08-03T12:23:32;100556.78;;;24.80;37.85
59168;BME280;44948;55.046;73.266;2022-08-03T12:25:39;100566.69;;;24.79;37.83
59168;BME280;44948;55.046;73.266;2022-08-03T12:27:51;100518.94;;;24.47;38.20
59168;BME280;44948;55.046;73.266;2022-08-03T12:29:43;100592.44;;;25.02;37.72
59168;BME280;44948;55.046;73.266;2022-08-03T12:31:40;100518.81;;;24.55;38.31
59168;BME280;44948;55.046;73.266;2022-08-03T12:33:30;100521.59;;;24.68;38.23
59168;BME280;44948;55.046;73.266;2022-08-03T12:36:00;100544.50;;;24.92;37.68
59168;BME280;44948;55.046;73.266;2022-08-03T12:38:03;100513.03;;;24.79;38.23
59168;BME280;44948;55.046;73.266;2022-08-03T12:39:58;100539.16;;;24.99;37.43
59168;BME280;44948;55.046;73.266;2022-08-03T12:41:51;100582.31;;;25.25;37.65
59168;BME280;44948;55.046;73.266;2022-08-03T12:43:57;100513.03;;;24.79;37.50
59168;BME280;44948;55.046;73.266;2022-08-03T12:45:48;100522.44;;;24.97;37.51
59168;BME280;44948;55.046;73.266;2022-08-03T12:47:56;100535.47;;;25.00;37.06
59168;BME280;44948;55.046;73.266;2022-08-03T12:49:46;100531.81;;;25.07;37.85
59168;BME280;44948;55.046;73.266;2022-08-03T12:53:59;100523.44;;;25.24;37.42
59168;BME280;44948;55.046;73.266;2022-08-03T12:56:04;100510.16;;;25.16;37.41
59168;BME280;44948;55.046;73.266;2022-08-03T12:57:54;100541.75;;;25.42;36.83
59168;BME280;44948;55.046;73.266;2022-08-03T12:59:49;100578.81;;;25.66;36.70
59168;BME280;44948;55.046;73.266;2022-08-03T13:01:43;100544.66;;;25.47;37.12
59168;BME280;44948;55.046;73.266;2022-08-03T13:03:42;100560.44;;;25.69;37.46
59168;BME280;44948;55.046;73.266;2022-08-03T13:05:50;100569.78;;;25.74;37.35